sensor_id;sensor_type;location;lat;lon;timestamp;P1;durP1;ratioP1;P2;durP2;ratioP2
66587;SDS011;53446;50.076;8.198;2023-07-22T00:01:17;281.93;;;123.27;;
66587;SDS011;53446;50.076;8.198;2023-07-22T00:03:18;286.77;;;125.87;;
66587;SDS011;53446;50.076;8.198;2023-07-22T00:05:18;289.57;;;125.80;;
66587;SDS011;53446;50.076;8.198;2023-07-22T00:07:23;287.23;;;125.78;;
66587;SDS011;53446;50.076;8.198;2023-07-22T00:09:23;285.10;;;124.83;;
66587;SDS011;53446;50.076;8.198;2023-07-22T00:11:24;285.47;;;124.93;;
66587;SDS011;53446;50.076;8.198;2023-07-22T00:13:24;286.57;;;125.07;;
66587;SDS011;53446;50.076;8.198;2023-07-22T00:15:26;285.02;;;125.65;;
66587;SDS011;53446;50.076;8.198;2023-07-22T00:17:27;283.27;;;125.57;;
66587;SDS011;53446;50.076;8.198;2023-07-22T00:19:27;283.33;;;125.07;;
66587;SDS011;53446;50.076;8.198;2023-07-22T00:21:27;280.45;;;124.38;;
66587;SDS011;53446;50.076;8.198;2023-07-22T00:23:29;281.73;;;124.30;;
66587;SDS011;53446;50.076;8.198;2023-07-22T00:25:30;279.55;;;123.57;;
66587;SDS011;53446;50.076;8.198;2023-07-22T00:27:30;277.53;;;123.47;;
66587;SDS011;53446;50.076;8.198;2023-07-22T00:29:30;273.33;;;122.33;;
66587;SDS011;53446;50.076;8.198;2023-07-22T00:31:30;277.10;;;123.53;;
66587;SDS011;53446;50.076;8.198;2023-07-22T00:33:31;277.13;;;124.00;;
66587;SDS011;53446;50.076;8.198;2023-07-22T00:35:31;277.70;;;123.80;;
66587;SDS011;53446;50.076;8.198;2023-07-22T00:37:32;278.83;;;123.70;;
66587;SDS011;53446;50.076;8.198;2023-07-22T00:39:33;278.70;;;123.70;;
66587;SDS011;53446;50.076;8.198;2023-07-22T00:41:34;278.23;;;124.30;;
66587;SDS011;53446;50.076;8.198;2023-07-22T00:43:34;267.38;;;121.93;;
66587;SDS011;53446;50.076;8.198;2023-07-22T00:45:34;265.73;;;120.23;;
66587;SDS011;53446;50.076;8.198;2023-07-22T00:47:35;264.87;;;120.03;;
66587;SDS011;53446;50.076;8.198;2023-07-22T00:49:35;262.67;;;118.97;;
66587;SDS011;53446;50.076;8.198;2023-07-22T00:51:36;260.67;;;119.50;;
66587;SDS011;53446;50.076;8.198;2023-07-22T00:53:36;261.43;;;118.87;;
66587;SDS011;53446;50.076;8.198;2023-07-22T00:55:36;261.93;;;119.17;;
66587;SDS011;53446;50.076;8.198;2023-07-22T00:57:39;261.15;;;118.82;;
66587;SDS011;53446;50.076;8.198;2023-07-22T00:59:40;261.67;;;119.97;;
66587;SDS011;53446;50.076;8.198;2023-07-22T01:01:40;264.20;;;118.45;;
66587;SDS011;53446;50.076;8.198;2023-07-22T01:03:41;261.13;;;118.20;;
66587;SDS011;53446;50.076;8.198;2023-07-22T01:05:41;264.90;;;120.07;;
66587;SDS011;53446;50.076;8.198;2023-07-22T01:07:41;266.27;;;120.17;;
66587;SDS011;53446;50.076;8.198;2023-07-22T01:09:42;269.03;;;120.73;;
66587;SDS011;53446;50.076;8.198;2023-07-22T01:11:43;265.15;;;119.57;;
66587;SDS011;53446;50.076;8.198;2023-07-22T01:13:43;266.50;;;120.07;;
66587;SDS011;53446;50.076;8.198;2023-07-22T01:15:43;268.83;;;120.23;;
66587;SDS011;53446;50.076;8.198;2023-07-22T01:17:44;269.60;;;120.63;;
66587;SDS011;53446;50.076;8.198;2023-07-22T01:19:44;270.27;;;120.85;;
66587;SDS011;53446;50.076;8.198;2023-07-22T01:21:46;277.10;;;122.82;;
66587;SDS011;53446;50.076;8.198;2023-07-22T01:23:47;275.33;;;122.22;;
66587;SDS011;53446;50.076;8.198;2023-07-22T01:25:47;278.10;;;122.68;;
66587;SDS011;53446;50.076;8.198;2023-07-22T01:27:51;277.67;;;123.00;;
66587;SDS011;53446;50.076;8.198;2023-07-22T01:29:52;279.10;;;123.47;;
66587;SDS011;53446;50.076;8.198;2023-07-22T01:31:53;281.00;;;123.70;;
66587;SDS011;53446;50.076;8.198;2023-07-22T01:33:54;277.52;;;122.82;;
66587;SDS011;53446;50.076;8.198;2023-07-22T01:35:54;279.53;;;123.47;;
66587;SDS011;53446;50.076;8.198;2023-07-22T01:37:54;279.27;;;122.90;;
66587;SDS011;53446;50.076;8.198;2023-07-22T01:39:55;283.40;;;123.13;;
66587;SDS011;53446;50.076;8.198;2023-07-22T01:41:57;286.42;;;123.65;;
66587;SDS011;53446;50.076;8.198;2023-07-22T01:43:57;282.80;;;124.73;;
66587;SDS011;53446;50.076;8.198;2023-07-22T01:45:57;287.33;;;126.05;;
66587;SDS011;53446;50.076;8.198;2023-07-22T01:47:57;287.08;;;124.95;;
66587;SDS011;53446;50.076;8.198;2023-07-22T01:49:58;287.00;;;124.27;;
66587;SDS011;53446;50.076;8.198;2023-07-22T01:51:58;291.53;;;126.50;;
66587;SDS011;53446;50.076;8.198;2023-07-22T01:53:58;290.23;;;126.57;;
66587;SDS011;53446;50.076;8.198;2023-07-22T01:55:59;289.37;;;126.93;;
66587;SDS011;53446;50.076;8.198;2023-07-22T01:58:00;284.40;;;124.30;;
66587;SDS011;53446;50.076;8.198;2023-07-22T02:00:00;287.95;;;126.20;;
66587;SDS011;53446;50.076;8.198;2023-07-22T02:02:01;287.03;;;125.50;;
66587;SDS011;53446;50.076;8.198;2023-07-22T02:04:01;287.43;;;124.80;;
66587;SDS011;53446;50.076;8.198;2023-07-22T02:06:04;291.63;;;126.30;;
66587;SDS011;53446;50.076;8.198;2023-07-22T02:08:04;292.15;;;125.95;;
66587;SDS011;53446;50.076;8.198;2023-07-22T02:10:05;293.90;;;127.03;;
66587;SDS011;53446;50.076;8.198;2023-07-22T02:12:06;297.85;;;128.77;;
66587;SDS011;53446;50.076;8.198;2023-07-22T02:14:07;302.48;;;128.77;;
66587;SDS011;53446;50.076;8.198;2023-07-22T02:16:07;307.10;;;129.77;;
66587;SDS011;53446;50.076;8.198;2023-07-22T02:18:11;309.48;;;130.25;;
66587;SDS011;53446;50.076;8.198;2023-07-22T02:20:11;308.55;;;130.75;;
66587;SDS011;53446;50.076;8.198;2023-07-22T02:22:12;305.47;;;130.07;;
66587;SDS011;53446;50.076;8.198;2023-07-22T02:24:13;305.95;;;130.52;;
66587;SDS011;53446;50.076;8.198;2023-07-22T02:26:15;292.33;;;128.63;;
66587;SDS011;53446;50.076;8.198;2023-07-22T02:28:16;298.57;;;128.47;;
66587;SDS011;53446;50.076;8.198;2023-07-22T02:30:20;299.15;;;128.35;;
66587;SDS011;53446;50.076;8.198;2023-07-22T02:32:21;298.27;;;128.83;;
66587;SDS011;53446;50.076;8.198;2023-07-22T02:34:21;300.87;;;129.27;;
66587;SDS011;53446;50.076;8.198;2023-07-22T02:36:21;303.45;;;129.88;;
66587;SDS011;53446;50.076;8.198;2023-07-22T02:38:22;305.23;;;130.00;;
66587;SDS011;53446;50.076;8.198;2023-07-22T02:40:22;309.20;;;131.00;;
66587;SDS011;53446;50.076;8.198;2023-07-22T02:42:22;305.47;;;130.27;;
66587;SDS011;53446;50.076;8.198;2023-07-22T02:44:23;308.07;;;131.77;;
66587;SDS011;53446;50.076;8.198;2023-07-22T02:46:23;308.63;;;130.90;;
66587;SDS011;53446;50.076;8.198;2023-07-22T02:48:25;308.23;;;131.32;;
66587;SDS011;53446;50.076;8.198;2023-07-22T02:50:25;313.50;;;133.43;;
66587;SDS011;53446;50.076;8.198;2023-07-22T02:52:26;298.15;;;128.32;;
66587;SDS011;53446;50.076;8.198;2023-07-22T02:54:26;298.37;;;129.50;;
66587;SDS011;53446;50.076;8.198;2023-07-22T02:56:26;301.07;;;128.60;;
66587;SDS011;53446;50.076;8.198;2023-07-22T02:58:27;299.73;;;128.48;;
66587;SDS011;53446;50.076;8.198;2023-07-22T03:00:27;304.25;;;130.45;;
66587;SDS011;53446;50.076;8.198;2023-07-22T03:02:28;301.00;;;129.20;;
66587;SDS011;53446;50.076;8.198;2023-07-22T03:04:28;298.85;;;129.50;;
66587;SDS011;53446;50.076;8.198;2023-07-22T03:06:29;303.63;;;129.63;;
66587;SDS011;53446;50.076;8.198;2023-07-22T03:08:31;300.13;;;128.82;;
66587;SDS011;53446;50.076;8.198;2023-07-22T03:10:31;311.00;;;132.57;;
66587;SDS011;53446;50.076;8.198;2023-07-22T03:12:32;310.70;;;132.43;;
66587;SDS011;53446;50.076;8.198;2023-07-22T03:14:32;314.00;;;133.32;;
66587;SDS011;53446;50.076;8.198;2023-07-22T03:16:36;310.30;;;132.73;;
66587;SDS011;53446;50.076;8.198;2023-07-22T03:18:36;311.23;;;132.13;;
66587;SDS011;53446;50.076;8.198;2023-07-22T03:20:39;315.63;;;134.15;;
66587;SDS011;53446;50.076;8.198;2023-07-22T03:22:42;312.83;;;133.10;;
66587;SDS011;53446;50.076;8.198;2023-07-22T03:24:43;316.30;;;133.43;;
66587;SDS011;53446;50.076;8.198;2023-07-22T03:26:44;314.38;;;133.25;;
66587;SDS011;53446;50.076;8.198;2023-07-22T03:28:44;313.90;;;134.10;;
66587;SDS011;53446;50.076;8.198;2023-07-22T03:30:45;318.40;;;133.47;;
66587;SDS011;53446;50.076;8.198;2023-07-22T03:32:45;300.73;;;131.60;;
66587;SDS011;53446;50.076;8.198;2023-07-22T03:34:47;299.65;;;132.20;;
66587;SDS011;53446;50.076;8.198;2023-07-22T03:36:47;293.53;;;130.90;;
66587;SDS011;53446;50.076;8.198;2023-07-22T03:38:48;297.15;;;132.02;;
66587;SDS011;53446;50.076;8.198;2023-07-22T03:40:49;294.57;;;131.43;;
66587;SDS011;53446;50.076;8.198;2023-07-22T03:42:50;296.80;;;131.40;;
66587;SDS011;53446;50.076;8.198;2023-07-22T03:44:50;301.33;;;132.90;;
66587;SDS011;53446;50.076;8.198;2023-07-22T03:46:51;300.27;;;132.93;;
66587;SDS011;53446;50.076;8.198;2023-07-22T03:48:51;303.00;;;134.33;;
66587;SDS011;53446;50.076;8.198;2023-07-22T03:50:51;301.40;;;134.10;;
66587;SDS011;53446;50.076;8.198;2023-07-22T03:52:52;304.20;;;134.83;;
66587;SDS011;53446;50.076;8.198;2023-07-22T03:54:52;306.88;;;135.65;;
66587;SDS011;53446;50.076;8.198;2023-07-22T03:56:52;302.57;;;133.70;;
66587;SDS011;53446;50.076;8.198;2023-07-22T03:58:53;302.60;;;132.23;;
66587;SDS011;53446;50.076;8.198;2023-07-22T04:00:53;298.23;;;131.23;;
66587;SDS011;53446;50.076;8.198;2023-07-22T04:02:53;297.37;;;130.93;;
66587;SDS011;53446;50.076;8.198;2023-07-22T04:04:54;303.40;;;134.30;;
66587;SDS011;53446;50.076;8.198;2023-07-22T04:06:55;293.33;;;133.57;;
66587;SDS011;53446;50.076;8.198;2023-07-22T04:08:55;292.17;;;133.63;;
66587;SDS011;53446;50.076;8.198;2023-07-22T04:10:56;300.20;;;135.33;;
66587;SDS011;53446;50.076;8.198;2023-07-22T04:12:57;298.35;;;134.50;;
66587;SDS011;53446;50.076;8.198;2023-07-22T04:14:57;296.07;;;134.97;;
66587;SDS011;53446;50.076;8.198;2023-07-22T04:16:57;295.97;;;135.03;;
66587;SDS011;53446;50.076;8.198;2023-07-22T04:18:58;300.03;;;135.77;;
66587;SDS011;53446;50.076;8.198;2023-07-22T04:20:58;303.60;;;136.75;;
66587;SDS011;53446;50.076;8.198;2023-07-22T04:22:58;298.88;;;134.88;;
66587;SDS011;53446;50.076;8.198;2023-07-22T04:24:59;297.70;;;134.53;;
66587;SDS011;53446;50.076;8.198;2023-07-22T04:27:00;295.40;;;133.87;;
66587;SDS011;53446;50.076;8.198;2023-07-22T04:29:01;290.38;;;132.60;;
66587;SDS011;53446;50.076;8.198;2023-07-22T04:31:01;294.13;;;133.87;;
66587;SDS011;53446;50.076;8.198;2023-07-22T04:33:04;289.52;;;132.15;;
66587;SDS011;53446;50.076;8.198;2023-07-22T04:35:10;291.27;;;132.18;;
66587;SDS011;53446;50.076;8.198;2023-07-22T04:37:10;292.92;;;131.80;;
66587;SDS011;53446;50.076;8.198;2023-07-22T04:39:10;293.33;;;133.77;;
66587;SDS011;53446;50.076;8.198;2023-07-22T04:41:11;303.53;;;143.60;;
66587;SDS011;53446;50.076;8.198;2023-07-22T04:43:11;295.17;;;134.47;;
66587;SDS011;53446;50.076;8.198;2023-07-22T04:45:12;286.17;;;131.88;;
66587;SDS011;53446;50.076;8.198;2023-07-22T04:47:12;285.13;;;130.23;;
66587;SDS011;53446;50.076;8.198;2023-07-22T04:49:12;283.17;;;131.17;;
66587;SDS011;53446;50.076;8.198;2023-07-22T04:51:14;285.20;;;132.02;;
66587;SDS011;53446;50.076;8.198;2023-07-22T04:53:14;284.60;;;131.35;;
66587;SDS011;53446;50.076;8.198;2023-07-22T04:55:16;285.60;;;129.60;;
66587;SDS011;53446;50.076;8.198;2023-07-22T04:57:17;285.17;;;131.05;;
66587;SDS011;53446;50.076;8.198;2023-07-22T04:59:17;289.83;;;131.67;;
66587;SDS011;53446;50.076;8.198;2023-07-22T05:01:18;293.20;;;132.60;;
66587;SDS011;53446;50.076;8.198;2023-07-22T05:03:18;291.60;;;133.60;;
66587;SDS011;53446;50.076;8.198;2023-07-22T05:05:19;305.77;;;130.90;;
66587;SDS011;53446;50.076;8.198;2023-07-22T05:07:19;301.53;;;130.77;;
66587;SDS011;53446;50.076;8.198;2023-07-22T05:09:21;299.77;;;130.10;;
66587;SDS011;53446;50.076;8.198;2023-07-22T05:11:21;296.27;;;128.53;;
66587;SDS011;53446;50.076;8.198;2023-07-22T05:13:23;291.60;;;127.60;;
66587;SDS011;53446;50.076;8.198;2023-07-22T05:15:24;291.85;;;126.93;;
66587;SDS011;53446;50.076;8.198;2023-07-22T05:17:25;289.67;;;126.87;;
66587;SDS011;53446;50.076;8.198;2023-07-22T05:19:25;291.38;;;127.72;;
66587;SDS011;53446;50.076;8.198;2023-07-22T05:21:26;297.10;;;128.03;;
66587;SDS011;53446;50.076;8.198;2023-07-22T05:23:26;297.43;;;127.97;;
66587;SDS011;53446;50.076;8.198;2023-07-22T05:25:27;294.67;;;127.40;;
66587;SDS011;53446;50.076;8.198;2023-07-22T05:27:27;294.65;;;126.28;;
66587;SDS011;53446;50.076;8.198;2023-07-22T05:29:27;292.67;;;126.57;;
66587;SDS011;53446;50.076;8.198;2023-07-22T05:31:27;292.17;;;127.20;;
66587;SDS011;53446;50.076;8.198;2023-07-22T05:33:28;291.03;;;128.13;;
66587;SDS011;53446;50.076;8.198;2023-07-22T05:35:28;286.30;;;127.43;;
66587;SDS011;53446;50.076;8.198;2023-07-22T05:37:28;272.47;;;124.10;;
66587;SDS011;53446;50.076;8.198;2023-07-22T05:39:29;273.43;;;123.97;;
66587;SDS011;53446;50.076;8.198;2023-07-22T05:41:29;273.97;;;124.93;;
66587;SDS011;53446;50.076;8.198;2023-07-22T05:43:29;269.67;;;123.25;;
66587;SDS011;53446;50.076;8.198;2023-07-22T05:45:30;272.23;;;123.50;;
66587;SDS011;53446;50.076;8.198;2023-07-22T05:47:30;272.50;;;122.87;;
66587;SDS011;53446;50.076;8.198;2023-07-22T05:49:30;273.47;;;122.70;;
66587;SDS011;53446;50.076;8.198;2023-07-22T05:51:31;271.13;;;122.67;;
66587;SDS011;53446;50.076;8.198;2023-07-22T05:53:32;267.10;;;120.60;;
66587;SDS011;53446;50.076;8.198;2023-07-22T05:55:33;274.60;;;123.82;;
66587;SDS011;53446;50.076;8.198;2023-07-22T05:57:34;272.90;;;122.57;;
66587;SDS011;53446;50.076;8.198;2023-07-22T05:59:34;271.73;;;122.53;;
66587;SDS011;53446;50.076;8.198;2023-07-22T06:01:39;268.25;;;122.30;;
66587;SDS011;53446;50.076;8.198;2023-07-22T06:03:40;263.48;;;120.43;;
66587;SDS011;53446;50.076;8.198;2023-07-22T06:05:42;267.83;;;121.90;;
66587;SDS011;53446;50.076;8.198;2023-07-22T06:07:42;262.52;;;121.00;;
66587;SDS011;53446;50.076;8.198;2023-07-22T06:09:42;252.85;;;118.75;;
66587;SDS011;53446;50.076;8.198;2023-07-22T06:11:43;251.80;;;117.97;;
66587;SDS011;53446;50.076;8.198;2023-07-22T06:13:43;250.23;;;117.47;;
66587;SDS011;53446;50.076;8.198;2023-07-22T06:15:43;252.77;;;119.13;;
66587;SDS011;53446;50.076;8.198;2023-07-22T06:17:43;248.20;;;116.47;;
66587;SDS011;53446;50.076;8.198;2023-07-22T06:19:44;247.63;;;117.33;;
66587;SDS011;53446;50.076;8.198;2023-07-22T06:21:44;248.53;;;117.23;;
66587;SDS011;53446;50.076;8.198;2023-07-22T06:23:44;248.53;;;116.73;;
66587;SDS011;53446;50.076;8.198;2023-07-22T06:25:46;248.07;;;118.05;;
66587;SDS011;53446;50.076;8.198;2023-07-22T06:27:46;240.70;;;115.17;;
66587;SDS011;53446;50.076;8.198;2023-07-22T06:29:46;237.17;;;116.07;;
66587;SDS011;53446;50.076;8.198;2023-07-22T06:31:47;237.70;;;115.63;;
66587;SDS011;53446;50.076;8.198;2023-07-22T06:33:47;231.65;;;113.72;;
66587;SDS011;53446;50.076;8.198;2023-07-22T06:35:48;234.50;;;114.67;;
66587;SDS011;53446;50.076;8.198;2023-07-22T06:37:48;222.17;;;111.50;;
66587;SDS011;53446;50.076;8.198;2023-07-22T06:39:48;220.70;;;111.67;;
66587;SDS011;53446;50.076;8.198;2023-07-22T06:41:48;224.33;;;111.13;;
66587;SDS011;53446;50.076;8.198;2023-07-22T06:43:49;224.07;;;111.50;;
66587;SDS011;53446;50.076;8.198;2023-07-22T06:45:50;236.77;;;120.22;;
66587;SDS011;53446;50.076;8.198;2023-07-22T06:47:50;223.47;;;111.70;;
66587;SDS011;53446;50.076;8.198;2023-07-22T06:49:50;226.20;;;112.03;;
66587;SDS011;53446;50.076;8.198;2023-07-22T06:51:51;223.60;;;111.55;;
66587;SDS011;53446;50.076;8.198;2023-07-22T06:53:52;224.00;;;112.32;;
66587;SDS011;53446;50.076;8.198;2023-07-22T06:55:52;213.40;;;108.60;;
66587;SDS011;53446;50.076;8.198;2023-07-22T06:57:55;210.00;;;107.20;;
66587;SDS011;53446;50.076;8.198;2023-07-22T06:59:55;206.88;;;107.15;;
66587;SDS011;53446;50.076;8.198;2023-07-22T07:01:56;209.50;;;107.93;;
66587;SDS011;53446;50.076;8.198;2023-07-22T07:03:56;204.73;;;106.80;;
66587;SDS011;53446;50.076;8.198;2023-07-22T07:05:57;198.60;;;105.20;;
66587;SDS011;53446;50.076;8.198;2023-07-22T07:07:57;198.53;;;105.03;;
66587;SDS011;53446;50.076;8.198;2023-07-22T07:09:57;196.40;;;103.82;;
66587;SDS011;53446;50.076;8.198;2023-07-22T07:11:58;193.55;;;103.80;;
66587;SDS011;53446;50.076;8.198;2023-07-22T07:13:58;191.00;;;102.40;;
66587;SDS011;53446;50.076;8.198;2023-07-22T07:16:09;178.60;;;97.70;;
66587;SDS011;53446;50.076;8.198;2023-07-22T07:18:22;179.20;;;98.10;;
66587;SDS011;53446;50.076;8.198;2023-07-22T07:20:23;182.50;;;99.87;;
66587;SDS011;53446;50.076;8.198;2023-07-22T07:22:23;181.87;;;98.43;;
66587;SDS011;53446;50.076;8.198;2023-07-22T07:24:23;178.13;;;98.43;;
66587;SDS011;53446;50.076;8.198;2023-07-22T07:26:24;177.73;;;97.83;;
66587;SDS011;53446;50.076;8.198;2023-07-22T07:28:24;176.88;;;98.32;;
66587;SDS011;53446;50.076;8.198;2023-07-22T07:30:24;178.65;;;98.15;;
66587;SDS011;53446;50.076;8.198;2023-07-22T07:32:25;177.37;;;97.60;;
66587;SDS011;53446;50.076;8.198;2023-07-22T07:34:25;180.50;;;98.60;;
66587;SDS011;53446;50.076;8.198;2023-07-22T07:36:26;172.77;;;96.20;;
66587;SDS011;53446;50.076;8.198;2023-07-22T07:38:26;167.23;;;95.87;;
66587;SDS011;53446;50.076;8.198;2023-07-22T07:40:26;158.25;;;92.53;;
66587;SDS011;53446;50.076;8.198;2023-07-22T07:42:27;152.17;;;91.30;;
66587;SDS011;53446;50.076;8.198;2023-07-22T07:44:27;152.80;;;90.53;;
66587;SDS011;53446;50.076;8.198;2023-07-22T07:46:28;145.68;;;88.93;;
66587;SDS011;53446;50.076;8.198;2023-07-22T07:48:28;151.30;;;90.22;;
66587;SDS011;53446;50.076;8.198;2023-07-22T07:50:28;154.40;;;91.53;;
66587;SDS011;53446;50.076;8.198;2023-07-22T07:52:29;146.33;;;89.20;;
66587;SDS011;53446;50.076;8.198;2023-07-22T07:54:29;147.47;;;88.87;;
66587;SDS011;53446;50.076;8.198;2023-07-22T07:56:29;141.40;;;87.03;;
66587;SDS011;53446;50.076;8.198;2023-07-22T07:58:29;141.00;;;87.50;;
66587;SDS011;53446;50.076;8.198;2023-07-22T08:00:30;138.40;;;86.67;;
66587;SDS011;53446;50.076;8.198;2023-07-22T08:02:31;128.27;;;82.78;;
66587;SDS011;53446;50.076;8.198;2023-07-22T08:04:31;130.53;;;84.70;;
66587;SDS011;53446;50.076;8.198;2023-07-22T08:06:31;129.80;;;83.63;;
66587;SDS011;53446;50.076;8.198;2023-07-22T08:08:33;132.30;;;83.70;;
66587;SDS011;53446;50.076;8.198;2023-07-22T08:10:33;139.87;;;86.30;;
66587;SDS011;53446;50.076;8.198;2023-07-22T08:12:33;137.93;;;85.87;;
66587;SDS011;53446;50.076;8.198;2023-07-22T08:14:34;142.93;;;88.03;;
66587;SDS011;53446;50.076;8.198;2023-07-22T08:16:34;136.93;;;84.57;;
66587;SDS011;53446;50.076;8.198;2023-07-22T08:18:35;137.47;;;85.20;;
66587;SDS011;53446;50.076;8.198;2023-07-22T08:20:36;139.57;;;86.68;;
66587;SDS011;53446;50.076;8.198;2023-07-22T08:22:36;139.00;;;86.60;;
66587;SDS011;53446;50.076;8.198;2023-07-22T08:24:36;133.00;;;84.77;;
66587;SDS011;53446;50.076;8.198;2023-07-22T08:26:37;128.90;;;83.17;;
66587;SDS011;53446;50.076;8.198;2023-07-22T08:28:37;133.17;;;83.87;;
66587;SDS011;53446;50.076;8.198;2023-07-22T08:30:38;128.23;;;82.53;;
66587;SDS011;53446;50.076;8.198;2023-07-22T08:32:40;128.40;;;81.95;;
66587;SDS011;53446;50.076;8.198;2023-07-22T08:34:40;117.30;;;78.73;;
66587;SDS011;53446;50.076;8.198;2023-07-22T08:36:41;117.78;;;78.63;;
66587;SDS011;53446;50.076;8.198;2023-07-22T08:38:41;122.10;;;79.90;;
66587;SDS011;53446;50.076;8.198;2023-07-22T08:40:42;128.10;;;82.23;;
66587;SDS011;53446;50.076;8.198;2023-07-22T08:42:42;125.97;;;82.23;;
66587;SDS011;53446;50.076;8.198;2023-07-22T08:44:43;118.05;;;78.53;;
66587;SDS011;53446;50.076;8.198;2023-07-22T08:46:45;114.78;;;78.13;;
66587;SDS011;53446;50.076;8.198;2023-07-22T08:48:46;114.38;;;77.05;;
66587;SDS011;53446;50.076;8.198;2023-07-22T08:50:55;121.33;;;80.20;;
66587;SDS011;53446;50.076;8.198;2023-07-22T08:53:01;122.00;;;80.78;;
66587;SDS011;53446;50.076;8.198;2023-07-22T08:55:01;118.47;;;79.27;;
66587;SDS011;53446;50.076;8.198;2023-07-22T08:57:01;123.15;;;81.28;;
66587;SDS011;53446;50.076;8.198;2023-07-22T08:59:02;118.70;;;79.07;;
66587;SDS011;53446;50.076;8.198;2023-07-22T09:01:02;120.33;;;79.50;;
66587;SDS011;53446;50.076;8.198;2023-07-22T09:03:03;117.60;;;78.43;;
66587;SDS011;53446;50.076;8.198;2023-07-22T09:05:04;115.53;;;78.30;;
66587;SDS011;53446;50.076;8.198;2023-07-22T09:07:05;105.27;;;73.43;;
66587;SDS011;53446;50.076;8.198;2023-07-22T09:09:06;105.78;;;74.65;;
66587;SDS011;53446;50.076;8.198;2023-07-22T09:11:08;107.35;;;74.97;;
66587;SDS011;53446;50.076;8.198;2023-07-22T09:13:09;115.13;;;78.13;;
66587;SDS011;53446;50.076;8.198;2023-07-22T09:15:10;111.05;;;76.18;;
66587;SDS011;53446;50.076;8.198;2023-07-22T09:17:12;115.75;;;77.55;;
66587;SDS011;53446;50.076;8.198;2023-07-22T09:19:12;116.37;;;77.60;;
66587;SDS011;53446;50.076;8.198;2023-07-22T09:21:13;117.70;;;78.20;;
66587;SDS011;53446;50.076;8.198;2023-07-22T09:23:13;118.80;;;79.03;;
66587;SDS011;53446;50.076;8.198;2023-07-22T09:25:15;130.90;;;84.82;;
66587;SDS011;53446;50.076;8.198;2023-07-22T09:27:34;119.47;;;79.07;;
66587;SDS011;53446;50.076;8.198;2023-07-22T09:29:35;121.83;;;79.63;;
66587;SDS011;53446;50.076;8.198;2023-07-22T09:31:50;118.80;;;78.78;;
66587;SDS011;53446;50.076;8.198;2023-07-22T09:33:52;112.10;;;75.78;;
66587;SDS011;53446;50.076;8.198;2023-07-22T09:35:55;105.25;;;73.47;;
66587;SDS011;53446;50.076;8.198;2023-07-22T09:37:56;104.40;;;73.13;;
66587;SDS011;53446;50.076;8.198;2023-07-22T09:39:56;107.73;;;74.20;;
66587;SDS011;53446;50.076;8.198;2023-07-22T09:41:57;106.13;;;73.85;;
66587;SDS011;53446;50.076;8.198;2023-07-22T09:44:02;113.97;;;77.25;;
66587;SDS011;53446;50.076;8.198;2023-07-22T09:46:09;116.75;;;78.25;;
66587;SDS011;53446;50.076;8.198;2023-07-22T09:48:10;118.50;;;78.50;;
66587;SDS011;53446;50.076;8.198;2023-07-22T09:50:11;117.13;;;78.43;;
66587;SDS011;53446;50.076;8.198;2023-07-22T09:52:13;118.03;;;78.72;;
66587;SDS011;53446;50.076;8.198;2023-07-22T09:54:13;107.40;;;74.97;;
66587;SDS011;53446;50.076;8.198;2023-07-22T09:56:13;104.33;;;72.93;;
66587;SDS011;53446;50.076;8.198;2023-07-22T09:58:14;100.47;;;70.72;;
66587;SDS011;53446;50.076;8.198;2023-07-22T10:00:15;105.38;;;73.13;;
66587;SDS011;53446;50.076;8.198;2023-07-22T10:02:16;96.45;;;69.63;;
66587;SDS011;53446;50.076;8.198;2023-07-22T10:04:18;92.93;;;68.57;;
66587;SDS011;53446;50.076;8.198;2023-07-22T10:06:22;92.20;;;67.78;;
66587;SDS011;53446;50.076;8.198;2023-07-22T10:08:24;89.80;;;66.72;;
66587;SDS011;53446;50.076;8.198;2023-07-22T10:10:31;87.87;;;65.50;;
66587;SDS011;53446;50.076;8.198;2023-07-22T10:12:33;84.38;;;63.90;;
66587;SDS011;53446;50.076;8.198;2023-07-22T10:14:33;78.43;;;62.33;;
66587;SDS011;53446;50.076;8.198;2023-07-22T10:16:35;65.85;;;55.22;;
66587;SDS011;53446;50.076;8.198;2023-07-22T10:18:35;65.53;;;54.08;;
66587;SDS011;53446;50.076;8.198;2023-07-22T10:20:37;70.40;;;56.92;;
66587;SDS011;53446;50.076;8.198;2023-07-22T10:22:38;69.30;;;57.03;;
66587;SDS011;53446;50.076;8.198;2023-07-22T10:24:39;72.13;;;57.55;;
66587;SDS011;53446;50.076;8.198;2023-07-22T10:26:41;75.88;;;59.55;;
66587;SDS011;53446;50.076;8.198;2023-07-22T10:28:41;70.33;;;57.70;;
66587;SDS011;53446;50.076;8.198;2023-07-22T10:30:42;70.10;;;57.67;;
66587;SDS011;53446;50.076;8.198;2023-07-22T10:34:44;64.00;;;53.45;;
66587;SDS011;53446;50.076;8.198;2023-07-22T10:36:44;69.33;;;56.37;;
66587;SDS011;53446;50.076;8.198;2023-07-22T10:38:56;70.47;;;57.08;;
66587;SDS011;53446;50.076;8.198;2023-07-22T10:40:58;73.77;;;58.10;;
66587;SDS011;53446;50.076;8.198;2023-07-22T10:42:59;64.93;;;54.83;;
66587;SDS011;53446;50.076;8.198;2023-07-22T10:45:03;65.93;;;54.88;;
66587;SDS011;53446;50.076;8.198;2023-07-22T10:47:33;71.00;;;57.35;;
66587;SDS011;53446;50.076;8.198;2023-07-22T10:49:49;80.38;;;60.33;;
66587;SDS011;53446;50.076;8.198;2023-07-22T10:51:50;75.40;;;59.88;;
66587;SDS011;53446;50.076;8.198;2023-07-22T10:53:51;78.63;;;61.78;;
66587;SDS011;53446;50.076;8.198;2023-07-22T10:56:10;85.53;;;63.80;;
66587;SDS011;53446;50.076;8.198;2023-07-22T10:58:14;92.47;;;67.97;;
66587;SDS011;53446;50.076;8.198;2023-07-22T11:00:18;94.77;;;68.03;;
66587;SDS011;53446;50.076;8.198;2023-07-22T11:02:29;88.32;;;66.10;;
66587;SDS011;53446;50.076;8.198;2023-07-22T11:04:30;82.43;;;63.22;;
66587;SDS011;53446;50.076;8.198;2023-07-22T11:06:35;82.03;;;63.20;;
66587;SDS011;53446;50.076;8.198;2023-07-22T11:08:37;84.15;;;62.88;;
66587;SDS011;53446;50.076;8.198;2023-07-22T11:10:38;78.00;;;61.50;;
66587;SDS011;53446;50.076;8.198;2023-07-22T11:12:52;75.55;;;60.65;;
66587;SDS011;53446;50.076;8.198;2023-07-22T11:15:01;76.82;;;60.88;;
66587;SDS011;53446;50.076;8.198;2023-07-22T11:17:03;76.03;;;60.08;;
66587;SDS011;53446;50.076;8.198;2023-07-22T11:19:04;64.45;;;53.65;;
66587;SDS011;53446;50.076;8.198;2023-07-22T11:21:11;61.00;;;47.53;;
66587;SDS011;53446;50.076;8.198;2023-07-22T11:23:11;46.97;;;39.65;;
66587;SDS011;53446;50.076;8.198;2023-07-22T11:25:18;43.13;;;33.60;;
66587;SDS011;53446;50.076;8.198;2023-07-22T11:27:18;37.08;;;27.40;;
66587;SDS011;53446;50.076;8.198;2023-07-22T11:29:19;31.00;;;17.63;;
66587;SDS011;53446;50.076;8.198;2023-07-22T11:31:20;28.90;;;16.77;;
66587;SDS011;53446;50.076;8.198;2023-07-22T11:33:20;29.63;;;15.73;;
66587;SDS011;53446;50.076;8.198;2023-07-22T11:35:20;27.30;;;14.93;;
66587;SDS011;53446;50.076;8.198;2023-07-22T11:37:20;25.97;;;14.27;;